Terminal Aerodrome Forecast
Issued by NWS Pueblo, CO

Home | Current Version | Previous Version | Text Only | Print | Product List | Glossary On
Versions: 1 2 3 4 5 6 7 8 9 10 11 12 13 14 15 16 17 18 19 20 21 22 23 24 25 26 27 28 29 30 31 32 33 34 35 36 37 38 39 40 41
000
FTUS45 KPUB 201730
TAFALS
TAF
KALS 201730Z 2018/2118 VRB05KT P6SM BKN200
     FM202000 VRB05KT P6SM SCT120 SCT200
     FM210100 VRB05KT P6SM FEW120 BKN200
     FM210500 VRB05KT P6SM BKN130=

USA.gov is the U.S. government's official web portal to all federal, state and local government web resources and services.